Time;durP1;ratioP1;P1;durP2;ratioP2;P2;SDS_P1;SDS_P2;PMS_P1;PMS_P2;Temp;Humidity;BMP_temperature;BMP_pressure;BME280_temperature;BME280_humidity;BME280_pressure;Samples;Min_cycle;Max_cycle;Signal;HPM_P1;HPM_P2
2022/01/30 00:02:10;;;;;;;4.93;4.53;;;;;;;6.28;72.54;97877.75;5097375;28;20532;-74
2022/01/30 00:04:36;;;;;;;5.17;4.67;;;;;;;6.23;72.84;97874.56;5097436;28;20492;-73
2022/01/30 00:07:03;;;;;;;5.10;4.60;;;;;;;6.18;73.48;97871.31;5093044;28;20203;-73
2022/01/30 00:09:29;;;;;;;4.90;4.40;;;;;;;6.13;73.90;97871.56;5076202;28;20210;-73
2022/01/30 00:11:59;;;;;;;5.20;4.40;;;;;;;6.13;73.92;97871.56;5076827;28;20586;-74
2022/01/30 00:14:31;;;;;;;5.23;4.50;;;;;;;6.09;74.52;97863.97;5077410;28;20230;-74
2022/01/30 00:17:02;;;;;;;4.90;4.50;;;;;;;6.10;74.47;97865.63;5075420;28;20658;-73
2022/01/30 00:19:35;;;;;;;6.13;4.33;;;;;;;6.09;74.36;97867.44;5090297;28;20198;-73
2022/01/30 00:22:14;;;;;;;5.13;4.63;;;;;;;6.11;74.78;97873.44;5083967;28;20246;-73
2022/01/30 00:24:47;;;;;;;8.07;5.13;;;;;;;6.16;74.50;97867.94;5096974;28;20198;-73
2022/01/30 00:27:18;;;;;;;5.57;4.80;;;;;;;6.19;74.28;97859.88;5096584;28;20629;-73
2022/01/30 00:29:46;;;;;;;5.23;4.70;;;;;;;6.22;74.37;97870.22;5096851;28;20205;-73
2022/01/30 00:32:12;;;;;;;5.23;4.27;;;;;;;6.23;74.46;97856.16;5097389;28;20220;-74
2022/01/30 00:34:39;;;;;;;4.80;4.40;;;;;;;6.21;74.53;97852.75;5096560;28;20236;-73
2022/01/30 00:37:06;;;;;;;5.30;4.63;;;;;;;6.18;74.79;97859.03;5096978;28;20206;-73
2022/01/30 00:39:32;;;;;;;4.60;4.20;;;;;;;6.13;75.50;97865.50;5096777;28;20233;-73
2022/01/30 00:41:59;;;;;;;4.67;4.13;;;;;;;6.14;75.47;97854.03;5097159;28;20220;-73
2022/01/30 00:44:25;;;;;;;4.67;4.10;;;;;;;6.18;74.71;97852.94;5096862;28;20213;-73
2022/01/30 00:46:54;;;;;;;4.40;4.00;;;;;;;6.16;75.23;97868.78;5097085;28;20206;-72
2022/01/30 00:49:21;;;;;;;4.60;4.20;;;;;;;6.13;75.69;97860.25;5096506;28;20249;-73
2022/01/30 00:51:47;;;;;;;4.70;4.30;;;;;;;6.13;74.86;97855.00;5096383;28;20237;-74
2022/01/30 00:54:14;;;;;;;3.90;3.60;;;;;;;6.17;74.67;97845.97;5099469;28;20229;-73
2022/01/30 00:56:40;;;;;;;4.10;3.70;;;;;;;6.17;75.11;97849.47;5100363;28;20205;-73
2022/01/30 00:59:07;;;;;;;4.40;4.10;;;;;;;6.16;75.24;97852.19;5097132;28;20205;-73
2022/01/30 01:01:33;;;;;;;4.50;4.10;;;;;;;6.09;76.04;97854.31;5096682;28;20628;-73
2022/01/30 01:04:01;;;;;;;4.57;4.13;;;;;;;6.12;76.09;97851.50;5096454;28;20210;-74
2022/01/30 01:06:27;;;;;;;3.97;3.67;;;;;;;6.10;76.53;97853.34;5095787;28;20674;-73
2022/01/30 01:08:58;;;;;;;3.77;3.47;;;;;;;6.15;76.23;97853.09;5076772;28;20622;-73
2022/01/30 01:11:55;;;;;;;5.10;4.27;;;;;;;6.16;75.71;97849.56;5077814;28;20527;-73
2022/01/30 01:25:30;;;;;;;3.83;3.53;;;;;;;6.29;76.72;97840.91;5025874;28;20195;-73
2022/01/30 01:27:57;;;;;;;5.40;3.50;;;;;;;6.26;77.77;97840.22;5067094;28;20569;-72
2022/01/30 01:30:23;;;;;;;3.90;3.50;;;;;;;6.30;78.03;97844.38;5096903;28;20210;-74
2022/01/30 01:32:50;;;;;;;5.30;4.07;;;;;;;6.25;79.07;97841.16;5096453;28;20206;-73
2022/01/30 01:35:18;;;;;;;3.97;3.63;;;;;;;6.23;79.59;97846.50;5096043;28;20538;-74
2022/01/30 01:37:44;;;;;;;3.70;3.40;;;;;;;6.28;79.70;97848.84;5096243;28;20212;-72
2022/01/30 01:40:11;;;;;;;3.80;3.37;;;;;;;6.29;79.98;97858.44;5096421;28;20198;-72
2022/01/30 01:42:38;;;;;;;3.73;3.40;;;;;;;6.27;80.62;97852.44;5115882;28;20209;-73
2022/01/30 01:45:05;;;;;;;3.90;3.60;;;;;;;6.23;82.13;97846.50;5110889;28;20201;-75
2022/01/30 01:47:33;;;;;;;3.50;3.20;;;;;;;6.26;82.04;97845.47;5098477;28;20211;-73
2022/01/30 01:49:59;;;;;;;3.80;3.40;;;;;;;6.30;81.59;97836.50;5096037;28;20248;-73
2022/01/30 01:52:27;;;;;;;3.93;3.53;;;;;;;6.38;80.95;97850.88;5095963;28;20202;-73
2022/01/30 01:54:56;;;;;;;4.40;4.00;;;;;;;6.37;81.11;97841.31;5102332;28;20240;-73
2022/01/30 01:57:24;;;;;;;4.17;3.77;;;;;;;6.34;81.61;97851.16;5095327;28;20221;-74
2022/01/30 01:59:51;;;;;;;4.33;3.63;;;;;;;6.36;81.66;97857.16;5095607;28;20202;-72
2022/01/30 02:02:17;;;;;;;4.63;4.00;;;;;;;6.30;82.56;97839.13;5095610;28;20208;-73
2022/01/30 02:04:45;;;;;;;3.83;3.20;;;;;;;6.32;82.27;97839.88;5095518;28;20539;-73
2022/01/30 02:07:39;;;;;;;3.60;3.30;;;;;;;6.34;81.56;97832.75;5081110;28;20217;-73
2022/01/30 02:10:11;;;;;;;3.37;3.17;;;;;;;6.44;81.53;97823.41;5092310;28;20298;-74
2022/01/30 02:12:46;;;;;;;3.53;3.23;;;;;;;6.46;81.04;97829.41;5095662;28;20202;-73
2022/01/30 02:15:31;;;;;;;4.50;3.30;;;;;;;6.45;81.19;97830.34;5095478;28;20260;-73
2022/01/30 02:26:14;;;;;;;3.93;3.57;;;;;;;6.43;80.51;97834.84;5075185;28;20328;-74
2022/01/30 02:28:40;;;;;;;3.20;3.00;;;;;;;6.45;80.77;97836.44;5075268;28;20221;-74
2022/01/30 02:31:11;;;;;;;4.07;3.30;;;;;;;6.50;80.77;97830.94;5074278;28;20217;-73
2022/01/30 02:33:39;;;;;;;3.70;3.40;;;;;;;6.57;80.12;97828.78;5078829;28;20213;-73
2022/01/30 02:36:06;;;;;;;3.60;3.30;;;;;;;6.55;80.17;97831.53;5079235;28;20230;-73
2022/01/30 02:38:34;;;;;;;3.17;2.83;;;;;;;6.52;80.17;97830.84;5079250;28;20630;-73
2022/01/30 02:41:00;;;;;;;3.47;3.20;;;;;;;6.58;79.98;97836.59;5089455;28;20205;-74
2022/01/30 02:43:28;;;;;;;3.60;3.30;;;;;;;6.54;80.21;97834.22;5099475;28;20208;-75
2022/01/30 02:46:04;;;;;;;3.23;2.93;;;;;;;6.58;80.10;97822.59;5099956;28;20202;-73
2022/01/30 02:48:45;;;;;;;3.37;3.07;;;;;;;6.57;80.01;97824.38;5099731;28;20596;-73
2022/01/30 02:51:15;;;;;;;3.30;3.03;;;;;;;6.59;79.66;97817.22;5087561;28;20581;-74
2022/01/30 02:53:46;;;;;;;3.40;3.10;;;;;;;6.54;79.90;97818.44;5097805;28;20296;-73
2022/01/30 02:56:13;;;;;;;3.40;3.10;;;;;;;6.49;80.46;97813.47;5106179;28;20218;-73
2022/01/30 02:58:39;;;;;;;3.10;2.80;;;;;;;6.49;80.43;97808.19;5098844;28;20205;-74
2022/01/30 03:01:06;;;;;;;3.60;3.30;;;;;;;6.48;80.48;97798.66;5098990;28;20213;-74
2022/01/30 03:03:32;;;;;;;3.80;3.10;;;;;;;6.49;80.37;97802.94;5098939;28;20217;-73
2022/01/30 03:05:59;;;;;;;3.43;3.13;;;;;;;6.49;80.76;97800.31;5098928;28;20513;-72
2022/01/30 03:08:25;;;;;;;2.93;2.73;;;;;;;6.54;80.77;97807.94;5082230;28;20214;-73
2022/01/30 03:10:53;;;;;;;3.67;3.27;;;;;;;6.48;81.15;97799.47;5078767;28;20209;-73
2022/01/30 03:13:19;;;;;;;3.50;3.00;;;;;;;6.56;80.73;97806.91;5078845;28;20540;-73
2022/01/30 03:15:46;;;;;;;3.60;3.30;;;;;;;6.54;80.63;97803.53;5078602;28;20222;-75
2022/01/30 03:18:12;;;;;;;2.87;2.67;;;;;;;6.55;80.71;97804.38;5078813;28;20206;-73
2022/01/30 03:20:39;;;;;;;3.57;3.27;;;;;;;6.54;80.57;97800.91;5078900;28;20206;-73
2022/01/30 03:23:05;;;;;;;3.03;2.80;;;;;;;6.54;80.63;97802.69;5078981;28;20221;-72
2022/01/30 03:25:33;;;;;;;3.40;3.10;;;;;;;6.55;80.78;97802.59;5078452;28;20203;-73
2022/01/30 03:28:02;;;;;;;2.80;2.60;;;;;;;6.60;80.17;97804.94;5083208;28;20205;-74
2022/01/30 03:30:30;;;;;;;3.10;2.80;;;;;;;6.59;80.09;97805.91;5099240;28;20206;-73
2022/01/30 03:32:56;;;;;;;4.00;3.17;;;;;;;6.67;79.53;97796.59;5098543;28;20258;-73
2022/01/30 03:35:23;;;;;;;3.87;3.13;;;;;;;6.66;79.06;97805.41;5098594;28;20237;-73
2022/01/30 03:37:49;;;;;;;2.87;2.67;;;;;;;6.64;79.16;97803.84;5101850;28;20216;-73
2022/01/30 03:40:16;;;;;;;3.00;2.80;;;;;;;6.65;79.32;97809.00;5117428;28;20201;-73
2022/01/30 03:42:42;;;;;;;2.80;2.60;;;;;;;6.67;78.97;97803.66;5109788;28;20229;-73
2022/01/30 03:45:11;;;;;;;2.90;2.70;;;;;;;6.72;78.68;97806.88;5093539;28;20221;-73
2022/01/30 03:47:37;;;;;;;2.77;2.57;;;;;;;6.77;78.24;97813.53;5087167;28;20530;-73
2022/01/30 03:50:05;;;;;;;3.17;2.97;;;;;;;6.75;78.57;97815.41;5100144;28;20241;-73
2022/01/30 03:52:31;;;;;;;3.40;2.73;;;;;;;6.69;78.80;97818.41;5101750;28;20567;-73
2022/01/30 03:54:58;;;;;;;2.80;2.60;;;;;;;6.71;78.88;97811.28;5110106;28;20668;-73
2022/01/30 03:57:24;;;;;;;3.13;2.83;;;;;;;6.73;78.63;97801.50;5103001;28;20225;-73
2022/01/30 03:59:51;;;;;;;3.20;2.80;;;;;;;6.73;78.47;97804.13;5110837;28;20206;-72
2022/01/30 04:02:19;;;;;;;2.40;2.20;;;;;;;6.72;78.61;97806.88;5118611;28;20197;-73
2022/01/30 04:04:45;;;;;;;2.60;2.40;;;;;;;6.74;78.11;97811.09;5119804;28;20194;-74
2022/01/30 04:07:12;;;;;;;2.63;2.43;;;;;;;6.76;78.28;97809.22;5119305;28;20210;-73
2022/01/30 04:09:40;;;;;;;2.80;2.43;;;;;;;6.74;78.30;97808.44;5119032;28;20206;-74
2022/01/30 04:12:07;;;;;;;2.87;2.53;;;;;;;6.77;78.29;97816.16;5107006;28;20202;-73
2022/01/30 04:14:34;;;;;;;3.03;2.50;;;;;;;6.74;78.18;97810.22;5084699;28;20324;-74
2022/01/30 04:17:01;;;;;;;2.53;2.30;;;;;;;6.75;78.30;97812.78;5078591;28;20534;-73
2022/01/30 04:19:29;;;;;;;2.47;2.27;;;;;;;6.75;78.17;97817.19;5078937;28;20214;-73
2022/01/30 04:21:56;;;;;;;3.07;2.47;;;;;;;6.74;78.35;97815.50;5078589;28;20203;-73
2022/01/30 04:24:22;;;;;;;2.60;2.40;;;;;;;6.72;78.22;97812.13;5079656;28;20206;-73
2022/01/30 04:26:49;;;;;;;3.10;2.80;;;;;;;6.74;78.11;97813.72;5092919;28;20213;-73
2022/01/30 04:29:15;;;;;;;2.57;2.20;;;;;;;6.76;77.98;97814.47;5113549;28;20205;-73
2022/01/30 04:31:43;;;;;;;2.97;2.40;;;;;;;6.78;77.78;97811.75;5105776;28;20210;-73
2022/01/30 04:34:10;;;;;;;2.50;2.30;;;;;;;6.75;77.69;97817.19;5107487;28;20205;-73
2022/01/30 04:36:43;;;;;;;2.43;2.23;;;;;;;6.76;77.58;97814.47;5113873;28;20221;-73
2022/01/30 04:39:18;;;;;;;2.40;2.30;;;;;;;6.80;77.39;97815.97;5112332;28;20247;-71
2022/01/30 04:42:04;;;;;;;2.27;2.17;;;;;;;6.75;77.47;97811.94;5102971;28;20225;-74
2022/01/30 04:53:04;;;;;;;2.50;2.30;;;;;;;6.80;76.40;97812.53;5101972;28;20208;-73
2022/01/30 04:58:22;;;;;;;2.50;2.30;;;;;;;6.81;76.42;97814.19;5109676;28;20221;-72
2022/01/30 05:00:56;;;;;;;2.63;2.43;;;;;;;6.82;76.19;97815.88;5105089;28;20225;-72
2022/01/30 05:03:39;;;;;;;2.80;2.50;;;;;;;6.85;76.11;97823.59;5106870;28;20304;-73
2022/01/30 05:06:09;;;;;;;2.63;2.43;;;;;;;6.79;75.94;97819.56;5113566;28;20280;-73
2022/01/30 05:08:38;;;;;;;2.70;2.50;;;;;;;6.78;75.93;97817.84;5095717;28;20219;-72
2022/01/30 05:11:07;;;;;;;2.60;2.40;;;;;;;6.77;76.00;97824.03;5109536;28;20210;-73
2022/01/30 05:13:36;;;;;;;3.00;2.80;;;;;;;6.75;76.15;97822.44;5089704;28;20529;-73
2022/01/30 05:16:03;;;;;;;2.77;2.57;;;;;;;6.75;76.32;97827.72;5089731;28;20241;-73
2022/01/30 05:18:30;;;;;;;2.87;2.47;;;;;;;6.77;76.34;97826.66;5096623;28;20209;-73
2022/01/30 05:20:57;;;;;;;2.90;2.70;;;;;;;6.78;75.79;97824.88;5096687;28;20210;-74
2022/01/30 05:23:25;;;;;;;3.07;2.70;;;;;;;6.76;76.14;97829.41;5078003;28;20220;-73
2022/01/30 05:25:53;;;;;;;3.07;2.80;;;;;;;6.70;76.04;97833.22;5076506;28;20202;-73
2022/01/30 05:28:22;;;;;;;3.10;2.80;;;;;;;6.81;74.79;97822.06;5076226;28;20213;-72
2022/01/30 05:30:50;;;;;;;2.97;2.77;;;;;;;6.79;74.61;97830.06;5083941;28;20218;-73
2022/01/30 05:33:17;;;;;;;2.97;2.77;;;;;;;6.78;74.84;97838.03;5093409;28;20615;-73
2022/01/30 05:35:43;;;;;;;3.73;3.33;;;;;;;6.75;75.06;97846.97;5103871;28;20232;-73
2022/01/30 05:38:12;;;;;;;3.00;2.77;;;;;;;6.77;74.58;97841.59;5096485;28;20210;-72
2022/01/30 05:40:39;;;;;;;3.00;2.80;;;;;;;6.81;74.49;97843.09;5096016;28;20202;-72
2022/01/30 05:43:07;;;;;;;3.50;3.20;;;;;;;6.84;74.43;97841.16;5094365;28;20218;-72
2022/01/30 05:45:37;;;;;;;4.50;3.10;;;;;;;6.85;74.18;97834.97;5075759;28;20502;-73
2022/01/30 05:48:09;;;;;;;3.40;3.10;;;;;;;6.84;74.35;97838.50;5076016;28;20301;-73
2022/01/30 05:50:36;;;;;;;3.50;3.20;;;;;;;6.90;73.62;97845.22;5075737;28;20321;-74
2022/01/30 05:53:03;;;;;;;4.33;3.30;;;;;;;6.89;73.66;97844.38;5075766;28;20630;-74
2022/01/30 05:55:31;;;;;;;2.93;2.70;;;;;;;6.86;73.66;97852.44;5085556;28;20226;-72
2022/01/30 05:57:58;;;;;;;3.50;3.20;;;;;;;6.90;73.77;97848.69;5096105;28;20198;-74
2022/01/30 06:00:26;;;;;;;2.97;2.77;;;;;;;6.92;73.74;97845.94;5095953;28;20209;-73
2022/01/30 06:02:52;;;;;;;3.20;2.90;;;;;;;6.89;74.22;97836.47;5095471;28;20557;-73
2022/01/30 06:05:21;;;;;;;2.90;2.70;;;;;;;6.88;74.12;97845.28;5095904;28;20198;-73
2022/01/30 06:07:51;;;;;;;3.43;3.23;;;;;;;6.86;74.81;97847.19;5082933;28;20241;-73
2022/01/30 06:10:18;;;;;;;3.00;2.80;;;;;;;6.85;74.80;97845.47;5075695;28;20217;-73
2022/01/30 06:12:45;;;;;;;2.97;2.77;;;;;;;6.83;74.94;97843.88;5075423;28;20226;-74
2022/01/30 06:15:13;;;;;;;2.80;2.60;;;;;;;6.82;74.99;97837.78;5075144;28;20206;-73
2022/01/30 06:17:41;;;;;;;3.60;3.30;;;;;;;6.82;74.67;97837.78;5075345;28;20206;-73
2022/01/30 06:20:08;;;;;;;2.87;2.67;;;;;;;6.80;74.77;97831.75;5074872;28;20296;-73
2022/01/30 06:22:35;;;;;;;2.90;2.70;;;;;;;6.79;74.98;97834.47;5074837;28;20697;-73
2022/01/30 06:25:01;;;;;;;3.07;2.80;;;;;;;6.78;75.09;97844.16;5081755;28;20609;-73
2022/01/30 06:27:28;;;;;;;6.63;3.23;;;;;;;6.81;74.76;97838.69;5095240;28;20201;-72
2022/01/30 06:29:54;;;;;;;3.43;3.13;;;;;;;6.76;75.18;97843.41;5094782;28;20655;-74
2022/01/30 06:32:21;;;;;;;3.40;3.10;;;;;;;6.77;75.15;97852.97;5094135;28;20206;-74
2022/01/30 06:34:49;;;;;;;3.53;3.20;;;;;;;6.78;75.40;97838.03;5095196;28;20213;-73
2022/01/30 06:37:15;;;;;;;3.50;3.20;;;;;;;6.83;74.92;97836.84;5081016;28;20230;-74
2022/01/30 06:39:41;;;;;;;3.50;3.20;;;;;;;6.86;74.66;97828.78;5082179;28;20197;-73
2022/01/30 06:42:09;;;;;;;3.20;3.00;;;;;;;6.79;74.69;97819.56;5099544;28;20201;-74
2022/01/30 06:44:35;;;;;;;3.50;2.90;;;;;;;6.78;75.16;97807.34;5075262;28;20210;-74
2022/01/30 06:47:02;;;;;;;3.80;2.73;;;;;;;6.76;74.68;97808.38;5074926;28;20272;-74
2022/01/30 06:49:28;;;;;;;2.83;2.63;;;;;;;6.72;74.90;97815.59;5074612;28;20234;-73
2022/01/30 06:51:56;;;;;;;3.20;2.90;;;;;;;6.86;74.49;97820.03;5074933;28;20210;-74
2022/01/30 06:54:23;;;;;;;2.63;2.43;;;;;;;6.83;74.59;97826.31;5074917;28;20206;-73
2022/01/30 06:56:49;;;;;;;3.00;2.80;;;;;;;6.76;74.93;97832.88;5092505;28;20225;-73
2022/01/30 06:59:16;;;;;;;2.70;2.50;;;;;;;6.72;74.97;97846.28;5095077;28;20217;-74
2022/01/30 07:01:42;;;;;;;2.87;2.67;;;;;;;6.69;74.94;97849.09;5095139;28;20205;-73
2022/01/30 07:04:09;;;;;;;2.87;2.67;;;;;;;6.52;76.10;97854.50;5095221;28;20213;-73
2022/01/30 07:06:35;;;;;;;3.10;2.90;;;;;;;6.27;77.02;97866.38;5093297;28;20210;-74
2022/01/30 07:09:03;;;;;;;3.20;2.90;;;;;;;6.30;76.97;97870.66;5075305;28;20206;-73
2022/01/30 07:11:29;;;;;;;3.57;3.23;;;;;;;6.22;77.27;97878.09;5074780;28;20207;-73
2022/01/30 07:13:56;;;;;;;3.47;2.97;;;;;;;6.19;77.22;97878.28;5075222;28;20202;-73
2022/01/30 07:16:22;;;;;;;3.17;2.87;;;;;;;6.12;78.12;97879.56;5076896;28;20226;-73
2022/01/30 07:18:49;;;;;;;3.37;3.07;;;;;;;6.09;78.06;97879.72;5097119;28;20209;-73
2022/01/30 07:21:15;;;;;;;2.77;2.57;;;;;;;6.08;78.41;97872.78;5098652;28;20206;-73
2022/01/30 07:23:41;;;;;;;2.70;2.50;;;;;;;6.06;78.43;97882.53;5099485;28;20212;-73
2022/01/30 07:26:10;;;;;;;3.53;3.10;;;;;;;6.02;78.52;97888.88;5117482;28;20186;-74
2022/01/30 07:28:36;;;;;;;3.93;3.10;;;;;;;5.94;78.73;97898.03;5090608;28;20222;-74
2022/01/30 07:31:03;;;;;;;2.87;2.67;;;;;;;5.92;79.29;97894.63;5082430;28;20231;-73
2022/01/30 07:33:29;;;;;;;3.87;2.60;;;;;;;5.89;79.24;97900.03;5079309;28;20221;-74
2022/01/30 07:35:57;;;;;;;2.60;2.40;;;;;;;5.82;79.49;97898.66;5078119;28;20245;-74
2022/01/30 07:38:24;;;;;;;3.87;2.60;;;;;;;5.79;79.52;97896.19;5078261;28;20237;-73
2022/01/30 07:40:51;;;;;;;2.80;2.60;;;;;;;5.81;79.91;97891.69;5093809;28;20637;-73
2022/01/30 07:43:18;;;;;;;2.60;2.40;;;;;;;5.81;79.86;97899.56;5094564;28;20202;-72
2022/01/30 07:45:45;;;;;;;2.70;2.50;;;;;;;5.87;79.82;97901.91;5077864;28;20211;-73
2022/01/30 07:48:11;;;;;;;2.37;2.17;;;;;;;5.91;80.07;97897.34;5078064;28;20218;-73
2022/01/30 07:50:38;;;;;;;2.50;2.40;;;;;;;5.87;80.43;97901.91;5077387;28;20238;-72
2022/01/30 07:53:05;;;;;;;2.47;2.27;;;;;;;6.00;80.21;97908.19;5077956;28;20225;-73
2022/01/30 07:55:31;;;;;;;2.20;2.07;;;;;;;6.20;79.81;97908.88;5084561;28;20629;-73
2022/01/30 07:57:57;;;;;;;2.80;2.50;;;;;;;6.34;79.23;97908.94;5098482;28;20202;-74
2022/01/30 08:00:25;;;;;;;2.77;2.57;;;;;;;6.54;78.88;97916.53;5098039;28;20201;-74
2022/01/30 08:02:52;;;;;;;2.60;2.40;;;;;;;6.67;77.65;97914.03;5085977;28;20220;-73
2022/01/30 08:05:18;;;;;;;2.40;2.30;;;;;;;6.79;77.64;97910.72;5078024;28;20206;-74
2022/01/30 08:07:45;;;;;;;3.07;2.77;;;;;;;6.86;77.38;97915.53;5089231;28;20529;-73
2022/01/30 08:10:11;;;;;;;2.60;2.40;;;;;;;6.95;77.33;97912.38;5097870;28;20297;-73
2022/01/30 08:12:38;;;;;;;2.70;2.50;;;;;;;7.04;76.56;97916.25;5098043;28;20209;-73
2022/01/30 08:15:07;;;;;;;2.77;2.57;;;;;;;7.15;76.38;97920.88;5097919;28;20214;-72
2022/01/30 08:17:36;;;;;;;2.20;2.10;;;;;;;7.26;75.94;97918.47;5097766;28;20230;-74
2022/01/30 08:20:04;;;;;;;3.00;2.70;;;;;;;7.44;75.24;97917.31;5097657;28;20205;-73
2022/01/30 08:22:32;;;;;;;2.70;2.50;;;;;;;7.50;74.76;97928.34;5097991;28;20197;-72
2022/01/30 08:24:58;;;;;;;2.87;2.60;;;;;;;7.57;74.04;97928.81;5097899;28;20209;-72
2022/01/30 08:27:25;;;;;;;2.80;2.60;;;;;;;7.64;73.74;97930.16;5085323;28;20203;-72
2022/01/30 08:29:52;;;;;;;2.73;2.40;;;;;;;7.70;73.25;97937.66;5076340;28;20221;-73
2022/01/30 08:32:18;;;;;;;2.80;2.60;;;;;;;7.71;73.36;97942.00;5077219;28;20305;-73
2022/01/30 08:34:46;;;;;;;2.80;2.60;;;;;;;7.74;73.05;97947.06;5077299;28;20220;-73
2022/01/30 08:37:12;;;;;;;2.77;2.50;;;;;;;7.83;72.64;97946.50;5077101;28;20226;-73
2022/01/30 08:39:39;;;;;;;2.60;2.40;;;;;;;7.92;71.96;97940.69;5077454;28;20203;-72
2022/01/30 08:42:06;;;;;;;2.87;2.60;;;;;;;7.96;71.33;97936.91;5101705;28;20216;-73
2022/01/30 08:44:33;;;;;;;2.50;2.30;;;;;;;8.01;71.15;97934.81;5078109;28;20210;-73
2022/01/30 08:46:59;;;;;;;2.57;2.40;;;;;;;8.07;71.10;97941.50;5076865;28;20214;-73
2022/01/30 08:49:25;;;;;;;2.50;2.30;;;;;;;8.02;71.42;97947.06;5082739;28;20249;-73
2022/01/30 08:51:53;;;;;;;3.83;2.27;;;;;;;8.09;70.93;97949.31;5097343;28;20225;-74
2022/01/30 08:54:20;;;;;;;3.03;2.70;;;;;;;8.06;71.25;97947.72;5096996;28;20228;-73
2022/01/30 08:56:46;;;;;;;2.60;2.40;;;;;;;8.05;71.20;97951.28;5096414;28;20226;-74
2022/01/30 08:59:13;;;;;;;3.27;2.97;;;;;;;8.15;70.34;97957.66;5096741;28;20216;-74
2022/01/30 09:01:40;;;;;;;2.77;2.57;;;;;;;8.10;70.61;97962.41;5096372;28;20644;-74
2022/01/30 09:04:07;;;;;;;2.60;2.40;;;;;;;8.07;70.71;97964.38;5097158;28;20295;-73
2022/01/30 09:06:36;;;;;;;3.20;2.90;;;;;;;8.07;70.62;97956.47;5095563;28;20190;-73
2022/01/30 09:09:05;;;;;;;3.77;3.00;;;;;;;8.11;70.63;97955.34;5076390;28;20656;-74
2022/01/30 09:11:33;;;;;;;3.17;2.97;;;;;;;8.12;70.93;97954.38;5076759;28;20576;-73
2022/01/30 09:14:00;;;;;;;3.37;2.40;;;;;;;8.17;70.70;97957.59;5076116;28;20634;-73
2022/01/30 09:16:26;;;;;;;2.70;2.50;;;;;;;8.33;70.29;97961.81;5075864;28;20249;-73
2022/01/30 09:18:52;;;;;;;2.60;2.40;;;;;;;8.58;69.42;97947.91;5073422;28;20237;-74
2022/01/30 09:21:19;;;;;;;2.80;2.60;;;;;;;8.90;67.93;97946.66;5076544;28;20539;-74
2022/01/30 09:23:45;;;;;;;3.03;2.00;;;;;;;9.82;66.36;97938.63;5077082;28;20316;-73
2022/01/30 09:26:13;;;;;;;2.80;2.60;;;;;;;10.99;61.96;97933.66;5113336;28;20198;-74
2022/01/30 09:28:40;;;;;;;4.20;2.20;;;;;;;11.74;58.93;97928.84;5112857;28;20287;-73
2022/01/30 09:31:06;;;;;;;2.60;2.20;;;;;;;12.60;54.60;97935.19;5097861;28;20229;-73
2022/01/30 09:33:32;;;;;;;2.30;2.10;;;;;;;13.12;54.05;97930.94;5096979;28;20209;-73
2022/01/30 09:35:59;;;;;;;2.33;2.13;;;;;;;13.64;52.02;97933.56;5094048;28;20209;-74
2022/01/30 09:38:25;;;;;;;3.30;3.00;;;;;;;13.80;50.72;97923.31;5085607;28;20226;-73
2022/01/30 09:40:54;;;;;;;2.00;1.90;;;;;;;13.99;50.44;97930.56;5100620;28;20223;-74
2022/01/30 09:43:23;;;;;;;2.03;1.73;;;;;;;13.72;50.76;97931.09;5094664;28;20672;-73
2022/01/30 09:45:50;;;;;;;1.97;1.87;;;;;;;13.22;52.01;97927.38;5098958;28;20231;-73
2022/01/30 09:48:18;;;;;;;1.50;1.40;;;;;;;12.43;53.33;97933.06;5097597;28;20205;-73
2022/01/30 09:50:44;;;;;;;1.53;1.43;;;;;;;11.84;56.57;97932.47;5099693;28;20576;-73
2022/01/30 09:53:12;;;;;;;1.80;1.70;;;;;;;11.35;58.11;97927.41;5098305;28;20256;-73
2022/01/30 09:55:38;;;;;;;2.40;2.03;;;;;;;10.96;59.92;97928.59;5100318;28;20210;-73
2022/01/30 09:58:05;;;;;;;2.00;1.90;;;;;;;10.59;60.05;97933.13;5102270;28;20229;-73
2022/01/30 10:00:36;;;;;;;2.20;2.00;;;;;;;10.46;61.50;97924.38;5105266;28;20212;-73
2022/01/30 10:03:02;;;;;;;1.90;1.70;;;;;;;10.17;62.31;97928.25;5109902;28;20219;-73
2022/01/30 10:05:33;;;;;;;1.53;1.43;;;;;;;9.96;63.53;97922.66;5116333;28;20202;-72
2022/01/30 10:08:00;;;;;;;7.40;6.00;;;;;;;9.87;63.64;97924.16;5117300;28;20186;-73
2022/01/30 10:10:29;;;;;;;2.60;2.40;;;;;;;9.74;64.48;97922.50;5113648;28;20202;-73
2022/01/30 10:13:04;;;;;;;2.63;2.10;;;;;;;9.70;64.47;97921.88;5089634;28;20242;-73
2022/01/30 10:15:33;;;;;;;1.77;1.63;;;;;;;9.43;65.35;97919.31;5086112;28;20208;-74
2022/01/30 10:18:04;;;;;;;2.90;2.17;;;;;;;9.44;65.88;97913.09;5097986;28;20316;-73
2022/01/30 10:20:36;;;;;;;1.90;1.80;;;;;;;9.34;65.87;97916.47;5088242;28;20206;-74
2022/01/30 10:23:08;;;;;;;2.10;2.00;;;;;;;9.31;64.98;97914.03;5075367;28;20280;-73
2022/01/30 10:25:36;;;;;;;1.80;1.70;;;;;;;9.76;64.30;97916.16;5076009;28;20210;-74
2022/01/30 10:28:08;;;;;;;2.77;1.77;;;;;;;9.91;62.87;97912.44;5074076;28;20711;-74
2022/01/30 10:30:44;;;;;;;1.97;1.77;;;;;;;10.32;61.76;97913.94;5075452;28;20224;-73
2022/01/30 10:33:12;;;;;;;3.03;1.93;;;;;;;10.72;60.29;97918.03;5075389;28;20202;-71
2022/01/30 10:35:51;;;;;;;2.00;1.90;;;;;;;11.49;59.57;97913.97;5074996;28;20532;-73
2022/01/30 10:38:22;;;;;;;2.07;1.87;;;;;;;12.55;56.53;97904.66;5083425;28;20229;-71
2022/01/30 10:40:57;;;;;;;2.93;1.70;;;;;;;13.71;51.91;97905.47;5094929;28;20197;-73
2022/01/30 10:43:24;;;;;;;2.63;2.40;;;;;;;13.57;52.09;97900.50;5090511;28;20202;-73
2022/01/30 10:45:52;;;;;;;2.05;1.95;;;;;;;13.22;52.94;97903.47;5074427;28;20206;-73
2022/01/30 10:48:21;;;;;;;2.28;2.08;;;;;;;13.10;53.46;97901.03;5075179;28;20198;-72
2022/01/30 10:50:48;;;;;;;1.73;1.63;;;;;;;12.89;52.80;97893.00;5077418;28;20257;-74
2022/01/30 10:53:20;;;;;;;1.70;1.60;;;;;;;13.36;52.58;97894.34;5075642;28;20649;-72
2022/01/30 10:55:48;;;;;;;4.18;2.42;;;;;;;13.93;50.42;97884.03;5098025;28;20223;-72
2022/01/30 10:58:16;;;;;;;3.38;1.90;;;;;;;13.87;50.57;97873.94;5099244;28;20282;-73
2022/01/30 11:00:46;;;;;;;1.90;1.80;;;;;;;14.12;49.52;97880.63;5085701;28;20521;-71
2022/01/30 11:03:44;;;;;;;2.25;2.05;;;;;;;14.29;48.78;97873.78;5098609;28;20194;-73
2022/01/30 11:06:13;;;;;;;2.42;1.80;;;;;;;15.06;48.40;97871.25;5098898;28;20281;-73
2022/01/30 11:08:43;;;;;;;2.90;1.88;;;;;;;15.16;47.36;97861.44;5079311;28;20619;-73
2022/01/30 11:11:19;;;;;;;1.80;1.70;;;;;;;16.10;44.40;97852.50;5077674;28;20203;-75
2022/01/30 11:13:59;;;;;;;2.28;1.70;;;;;;;16.29;43.58;97847.06;5084912;28;20299;-73
2022/01/30 11:19:15;;;;;;;2.15;1.52;;;;;;;16.16;43.16;97833.19;5117567;28;20271;-71
2022/01/30 11:21:42;;;;;;;2.03;1.65;;;;;;;15.69;44.15;97830.63;5116124;28;20206;-72
2022/01/30 11:24:10;;;;;;;1.92;1.60;;;;;;;15.35;45.47;97834.75;5106701;28;20585;-74
2022/01/30 11:26:36;;;;;;;2.63;1.95;;;;;;;15.00;46.55;97829.19;5093906;28;20199;-72
2022/01/30 11:29:03;;;;;;;2.00;1.80;;;;;;;14.31;47.23;97822.13;5078663;28;20210;-73
2022/01/30 11:31:30;;;;;;;2.20;2.00;;;;;;;13.57;48.99;97815.44;5078504;28;20210;-71
2022/01/30 11:33:56;;;;;;;1.73;1.63;;;;;;;12.92;50.89;97803.31;5078741;28;20211;-73
2022/01/30 11:36:25;;;;;;;2.30;2.10;;;;;;;12.40;52.12;97800.63;5077823;28;20218;-73
2022/01/30 11:38:51;;;;;;;2.13;2.00;;;;;;;12.35;52.53;97802.84;5077540;28;20669;-73
2022/01/30 11:41:19;;;;;;;2.50;2.13;;;;;;;12.43;52.62;97803.88;5084244;28;20222;-73
2022/01/30 11:44:23;;;;;;;2.23;2.03;;;;;;;12.60;53.58;97801.66;5088533;28;20633;-73
2022/01/30 11:47:31;;;;;;;2.30;2.10;;;;;;;12.87;52.28;97799.34;5078296;28;20213;-73
2022/01/30 11:50:06;;;;;;;1.90;1.80;;;;;;;12.81;52.15;97792.75;5090485;28;20710;-73
2022/01/30 11:53:01;;;;;;;2.30;2.10;;;;;;;12.40;53.19;97784.72;5100795;28;20205;-72
2022/01/30 11:55:48;;;;;;;2.00;1.87;;;;;;;11.98;54.16;97784.59;5082033;28;20527;-72
2022/01/30 11:58:34;;;;;;;2.20;2.00;;;;;;;11.74;55.30;97770.69;5099883;28;20210;-71
2022/01/30 12:01:02;;;;;;;2.20;2.10;;;;;;;11.79;55.51;97779.13;5088932;28;20205;-73
2022/01/30 12:03:30;;;;;;;2.33;2.13;;;;;;;11.60;54.16;97768.25;5099958;28;20213;-72
2022/01/30 12:05:58;;;;;;;6.20;2.43;;;;;;;11.45;55.54;97765.00;5097949;28;20216;-72
2022/01/30 12:08:45;;;;;;;3.00;2.50;;;;;;;11.42;56.29;97775.00;5099856;28;20557;-77
2022/01/30 12:11:47;;;;;;;2.80;1.93;;;;;;;11.31;57.57;97772.34;5100070;28;20230;-74
2022/01/30 12:14:52;;;;;;;2.47;2.27;;;;;;;11.32;55.60;97766.09;5099930;28;20208;-73
2022/01/30 12:17:58;;;;;;;1.73;1.63;;;;;;;11.12;56.50;97769.47;5099322;28;20234;-76
2022/01/30 12:20:25;;;;;;;1.97;1.87;;;;;;;10.72;57.06;97769.88;5099773;28;20223;-75
2022/01/30 12:22:53;;;;;;;2.30;2.10;;;;;;;10.59;58.54;97769.13;5099097;28;20209;-72